createdAt,value
2018-01-13T00:01:52.243Z,30.00
2018-01-13T00:04:17.995Z,30.93
2018-01-13T00:06:43.754Z,30.23
2018-01-13T00:09:09.495Z,30.27
2018-01-13T00:11:35.231Z,30.33
2018-01-13T00:14:00.981Z,29.67
2018-01-13T00:16:26.731Z,32.50
2018-01-13T00:18:52.481Z,29.80
2018-01-13T00:21:18.234Z,32.27
2018-01-13T00:23:43.986Z,32.90
2018-01-13T00:26:09.738Z,33.10
2018-01-13T00:28:35.494Z,31.40
2018-01-13T00:31:01.247Z,32.53
2018-01-13T00:33:26.994Z,32.47
2018-01-13T00:35:52.746Z,32.13
2018-01-13T00:38:18.502Z,31.50
2018-01-13T00:40:44.245Z,32.37
2018-01-13T00:43:10.011Z,33.53
2018-01-13T00:45:35.762Z,33.20
2018-01-13T00:48:01.508Z,31.90
2018-01-13T00:50:27.258Z,33.17
2018-01-13T00:52:52.999Z,32.80
2018-01-13T00:55:18.770Z,34.80
2018-01-13T00:57:44.506Z,32.43
2018-01-13T01:00:10.251Z,33.03
2018-01-13T01:02:36.002Z,32.70
2018-01-13T01:05:01.758Z,32.43
2018-01-13T01:07:27.490Z,31.40
2018-01-13T01:09:53.474Z,32.20
2018-01-13T01:12:19.211Z,33.65
2018-01-13T01:14:44.950Z,32.70
2018-01-13T01:17:10.683Z,30.93
2018-01-13T01:19:36.438Z,33.43
2018-01-13T01:22:02.171Z,33.30
2018-01-13T01:24:27.918Z,33.27
2018-01-13T01:26:53.671Z,32.63
2018-01-13T01:29:19.418Z,34.43
2018-01-13T01:31:45.166Z,32.17
2018-01-13T01:34:10.917Z,33.57
2018-01-13T01:36:37.314Z,33.47
2018-01-13T01:39:03.336Z,32.33
2018-01-13T01:41:29.366Z,33.55
2018-01-13T01:43:55.119Z,32.17
2018-01-13T01:46:20.891Z,33.53
2018-01-13T01:48:46.631Z,32.77
2018-01-13T01:51:12.386Z,32.83
2018-01-13T01:53:38.121Z,34.10
2018-01-13T01:56:04.486Z,33.20
2018-01-13T01:58:30.224Z,34.88
2018-01-13T02:00:56.239Z,34.47
2018-01-13T02:03:22.002Z,34.08
2018-01-13T02:05:47.755Z,33.93
2018-01-13T02:08:13.493Z,33.47
2018-01-13T02:10:39.222Z,33.27
2018-01-13T02:13:04.975Z,34.73
2018-01-13T02:15:30.721Z,33.37
2018-01-13T02:17:56.470Z,34.20
2018-01-13T02:20:23.459Z,34.93
2018-01-13T02:22:49.803Z,33.00
2018-01-13T02:25:15.860Z,35.35
2018-01-13T02:27:41.603Z,34.63
2018-01-13T02:30:07.351Z,34.87
2018-01-13T02:32:33.402Z,33.00
2018-01-13T02:34:59.434Z,33.80
2018-01-13T02:37:25.184Z,34.45
2018-01-13T02:39:50.934Z,34.17
2018-01-13T02:42:16.682Z,33.17
2018-01-13T02:44:42.457Z,32.90
2018-01-13T02:47:08.462Z,32.67
2018-01-13T02:49:34.244Z,33.08
2018-01-13T02:52:00.000Z,32.83
2018-01-13T02:54:25.774Z,33.67
2018-01-13T02:56:51.524Z,31.83
2018-01-13T02:59:17.291Z,32.10
2018-01-13T03:01:43.046Z,32.07
2018-01-13T03:04:08.813Z,32.93
2018-01-13T03:06:34.578Z,31.27
2018-01-13T03:09:00.335Z,33.47
2018-01-13T03:11:26.094Z,33.43
2018-01-13T03:13:51.856Z,34.03
2018-01-13T03:16:17.602Z,33.17
2018-01-13T03:18:43.348Z,34.10
2018-01-13T03:21:16.227Z,32.80
2018-01-13T03:23:41.978Z,34.72
2018-01-13T03:26:07.739Z,32.83
2018-01-13T03:28:33.491Z,33.90
2018-01-13T03:30:59.270Z,34.20
2018-01-13T03:33:25.021Z,32.53
2018-01-13T03:35:50.773Z,34.40
2018-01-13T03:38:16.528Z,32.47
2018-01-13T03:40:42.303Z,31.57
2018-01-13T03:43:08.057Z,33.87
2018-01-13T03:45:33.810Z,33.23
2018-01-13T03:47:59.563Z,33.20
2018-01-13T03:50:25.306Z,31.73
2018-01-13T03:52:51.039Z,30.80
2018-01-13T03:55:16.786Z,31.70
2018-01-13T03:57:42.558Z,29.70
2018-01-13T04:00:08.307Z,31.23
2018-01-13T04:02:34.055Z,29.30
2018-01-13T04:04:59.806Z,29.73
2018-01-13T04:07:25.566Z,28.33
2018-01-13T04:09:51.301Z,27.93
2018-01-13T04:12:17.811Z,27.75
2018-01-13T04:14:43.554Z,28.63
2018-01-13T04:17:09.307Z,28.13
2018-01-13T04:19:35.039Z,27.87
2018-01-13T04:22:00.790Z,28.00
2018-01-13T04:24:26.553Z,27.47
2018-01-13T04:26:52.305Z,28.17
2018-01-13T04:29:18.055Z,29.60
2018-01-13T04:31:43.827Z,29.33
2018-01-13T04:34:09.566Z,28.13
2018-01-13T04:36:35.320Z,28.00
2018-01-13T04:39:01.062Z,28.97
2018-01-13T04:41:26.823Z,30.23
2018-01-13T04:43:52.559Z,28.23
2018-01-13T04:46:18.313Z,29.17
2018-01-13T04:48:44.066Z,29.80
2018-01-13T04:51:09.830Z,34.23
2018-01-13T04:53:35.573Z,28.67
2018-01-13T04:56:01.324Z,29.40
2018-01-13T04:58:27.058Z,28.73
2018-01-13T05:00:52.808Z,27.40
2018-01-13T05:03:18.551Z,29.07
2018-01-13T05:05:44.298Z,30.27
2018-01-13T05:08:10.050Z,30.17
2018-01-13T05:10:35.826Z,27.97
2018-01-13T05:13:01.570Z,30.00
2018-01-13T05:15:27.319Z,29.50
2018-01-13T05:17:53.088Z,29.30
2018-01-13T05:20:18.903Z,31.30
2018-01-13T05:22:44.646Z,29.97
2018-01-13T05:25:10.388Z,31.43
2018-01-13T05:27:36.150Z,36.33
2018-01-13T05:30:01.905Z,30.30
2018-01-13T05:32:27.656Z,33.67
2018-01-13T05:34:53.452Z,31.60
2018-01-13T05:37:19.175Z,31.80
2018-01-13T05:39:44.913Z,31.83
2018-01-13T05:42:10.659Z,32.47
2018-01-13T05:44:36.406Z,34.07
2018-01-13T05:47:02.178Z,34.37
2018-01-13T05:49:27.928Z,35.77
2018-01-13T05:51:53.685Z,35.23
2018-01-13T05:54:19.430Z,36.93
2018-01-13T05:56:45.186Z,36.77
2018-01-13T05:59:10.951Z,35.30
2018-01-13T06:01:36.709Z,38.50
2018-01-13T06:04:02.483Z,38.87
2018-01-13T06:06:28.236Z,41.13
2018-01-13T06:08:53.974Z,41.57
2018-01-13T06:11:19.727Z,41.20
2018-01-13T06:13:45.489Z,43.93
2018-01-13T06:16:11.235Z,42.90
2018-01-13T06:18:37.000Z,47.33
2018-01-13T06:21:02.736Z,44.43
2018-01-13T06:23:28.498Z,45.00
2018-01-13T06:25:54.235Z,42.03
2018-01-13T06:28:19.989Z,47.70
2018-01-13T06:30:45.731Z,47.70
2018-01-13T06:33:11.491Z,46.87
2018-01-13T06:35:37.238Z,43.77
2018-01-13T06:38:03.018Z,44.60
2018-01-13T06:40:28.754Z,41.97
2018-01-13T06:42:54.494Z,45.10
2018-01-13T06:45:20.231Z,43.20
2018-01-13T06:47:46.014Z,42.23
2018-01-13T06:50:11.757Z,43.80
2018-01-13T06:52:37.519Z,46.10
2018-01-13T06:55:03.265Z,44.60
2018-01-13T06:57:29.015Z,45.23
2018-01-13T06:59:54.766Z,44.67
2018-01-13T07:02:20.507Z,46.37
2018-01-13T07:04:46.258Z,44.37
2018-01-13T07:07:11.995Z,39.83
2018-01-13T07:09:38.737Z,45.10
2018-01-13T07:12:04.484Z,41.47
2018-01-13T07:14:30.235Z,40.17
2018-01-13T07:16:55.986Z,43.10
2018-01-13T07:19:21.742Z,44.17
2018-01-13T07:21:47.482Z,42.03
2018-01-13T07:24:13.227Z,36.33
2018-01-13T07:26:38.979Z,37.60
2018-01-13T07:29:04.739Z,41.37
2018-01-13T07:31:30.478Z,43.00
2018-01-13T07:33:56.231Z,43.30
2018-01-13T07:36:21.994Z,44.30
2018-01-13T07:38:47.741Z,44.57
2018-01-13T07:41:13.483Z,43.87
2018-01-13T07:43:39.255Z,45.53
2018-01-13T07:46:04.990Z,44.80
2018-01-13T07:48:30.738Z,45.07
2018-01-13T07:50:56.495Z,45.60
2018-01-13T07:53:22.230Z,45.80
2018-01-13T07:55:47.985Z,44.10
2018-01-13T07:58:13.731Z,46.77
2018-01-13T08:00:39.492Z,44.87
2018-01-13T08:03:05.248Z,47.00
2018-01-13T08:05:30.997Z,44.87
2018-01-13T08:07:56.742Z,45.63
2018-01-13T08:10:22.499Z,46.60
2018-01-13T08:12:48.238Z,45.07
2018-01-13T08:15:13.987Z,46.07
2018-01-13T08:17:39.739Z,44.17
2018-01-13T08:20:05.495Z,46.10
2018-01-13T08:22:31.246Z,46.33
2018-01-13T08:24:57.001Z,47.00
2018-01-13T08:27:22.755Z,48.97
2018-01-13T08:29:48.527Z,44.00
2018-01-13T08:32:14.266Z,46.37
2018-01-13T08:34:40.002Z,48.07
2018-01-13T08:37:05.763Z,47.07
2018-01-13T08:39:31.507Z,46.90
2018-01-13T08:41:57.256Z,46.67
2018-01-13T08:44:22.992Z,46.13
2018-01-13T08:46:48.766Z,46.97
2018-01-13T08:49:14.503Z,43.60
2018-01-13T08:51:40.247Z,47.93
2018-01-13T08:54:05.996Z,47.23
2018-01-13T08:56:31.764Z,46.67
2018-01-13T08:58:57.527Z,48.60
2018-01-13T09:01:23.295Z,48.67
2018-01-13T09:03:49.043Z,47.07
2018-01-13T09:06:14.804Z,48.33
2018-01-13T09:08:40.554Z,48.87
2018-01-13T09:11:06.306Z,47.00
2018-01-13T09:13:32.058Z,46.63
2018-01-13T09:15:57.807Z,49.53
2018-01-13T09:18:23.552Z,48.00
2018-01-13T09:20:49.301Z,48.70
2018-01-13T09:23:15.071Z,50.30
2018-01-13T09:25:40.818Z,46.90
2018-01-13T09:28:06.575Z,45.53
2018-01-13T09:30:32.322Z,48.73
2018-01-13T09:32:58.084Z,49.00
2018-01-13T09:35:23.827Z,46.40
2018-01-13T09:37:49.584Z,47.07
2018-01-13T09:40:15.342Z,44.10
2018-01-13T09:42:41.091Z,41.00
2018-01-13T09:45:06.845Z,42.67
2018-01-13T09:47:32.608Z,44.13
2018-01-13T09:49:58.359Z,43.87
2018-01-13T09:52:24.116Z,44.60
2018-01-13T09:54:49.947Z,42.33
2018-01-13T09:57:15.698Z,44.67
2018-01-13T09:59:41.450Z,45.03
2018-01-13T10:02:07.208Z,44.93
2018-01-13T10:04:32.951Z,45.77
2018-01-13T10:06:58.727Z,46.67
2018-01-13T10:09:24.464Z,46.43
2018-01-13T10:11:50.199Z,46.67
2018-01-13T10:14:15.964Z,47.50
2018-01-13T10:16:41.724Z,43.83
2018-01-13T10:19:07.540Z,45.90
2018-01-13T10:21:33.303Z,47.53
2018-01-13T10:23:59.050Z,48.23
2018-01-13T10:26:24.806Z,46.40
2018-01-13T10:28:50.555Z,47.30
2018-01-13T10:31:17.299Z,47.97
2018-01-13T10:33:43.156Z,47.33
2018-01-13T10:36:08.888Z,46.83
2018-01-13T10:38:34.643Z,48.23
2018-01-13T10:41:00.708Z,48.07
2018-01-13T10:43:26.491Z,46.65
2018-01-13T10:45:52.501Z,47.50
2018-01-13T10:48:18.566Z,45.63
2018-01-13T10:50:44.306Z,47.83
2018-01-13T10:53:10.078Z,48.07
2018-01-13T10:55:35.821Z,42.73
2018-01-13T10:58:01.559Z,44.53
2018-01-13T11:00:27.390Z,45.20
2018-01-13T11:02:53.154Z,46.83
2018-01-13T11:05:19.228Z,44.83
2018-01-13T11:07:45.067Z,47.15
2018-01-13T11:10:12.027Z,45.87
2018-01-13T11:12:37.767Z,46.97
2018-01-13T11:15:03.550Z,45.53
2018-01-13T11:17:29.288Z,43.63
2018-01-13T11:19:55.031Z,43.83
2018-01-13T11:22:20.838Z,45.47
2018-01-13T11:24:46.707Z,44.93
2018-01-13T11:27:12.453Z,44.93
2018-01-13T11:29:38.211Z,40.23
2018-01-13T11:32:04.179Z,44.37
2018-01-13T11:34:29.994Z,45.40
2018-01-13T11:36:55.743Z,46.03
2018-01-13T11:39:21.506Z,41.93
2018-01-13T11:41:47.264Z,46.70
2018-01-13T11:44:13.011Z,46.33
2018-01-13T11:46:38.782Z,43.17
2018-01-13T11:49:04.527Z,41.50
2018-01-13T11:51:30.279Z,44.10
2018-01-13T11:53:56.149Z,49.60
2018-01-13T11:56:21.906Z,43.83
2018-01-13T11:58:47.653Z,50.77
2018-01-13T12:01:13.419Z,49.50
2018-01-13T12:03:39.175Z,49.77
2018-01-13T12:06:04.934Z,47.03
2018-01-13T12:08:30.663Z,46.17
2018-01-13T12:10:56.426Z,48.87
2018-01-13T12:13:22.188Z,47.77
2018-01-13T12:15:47.959Z,47.93
2018-01-13T12:18:13.711Z,53.10
2018-01-13T12:20:39.462Z,50.80
2018-01-13T12:23:05.221Z,49.23
2018-01-13T12:25:30.991Z,45.30
2018-01-13T12:27:56.776Z,49.07
2018-01-13T12:30:22.585Z,48.53
2018-01-13T12:32:48.333Z,49.03
2018-01-13T12:35:14.159Z,47.80
2018-01-13T12:37:39.853Z,49.53
2018-01-13T12:40:05.614Z,48.13
2018-01-13T12:42:31.415Z,49.40
2018-01-13T12:44:57.253Z,46.43
2018-01-13T12:47:23.079Z,48.50
2018-01-13T12:49:48.819Z,48.00
2018-01-13T12:52:14.567Z,49.87
2018-01-13T12:54:40.319Z,49.03
2018-01-13T12:57:06.077Z,47.67
2018-01-13T12:59:31.839Z,43.17
2018-01-13T13:01:57.603Z,46.30
2018-01-13T13:04:23.351Z,46.73
2018-01-13T13:06:49.143Z,47.40
2018-01-13T13:09:14.883Z,47.33
2018-01-13T13:11:40.607Z,48.00
2018-01-13T13:14:06.343Z,49.13
2018-01-13T13:16:32.086Z,49.40
2018-01-13T13:18:57.855Z,50.93
2018-01-13T13:21:23.603Z,46.13
2018-01-13T13:23:49.354Z,47.20
2018-01-13T13:26:15.107Z,47.13
2018-01-13T13:28:40.863Z,46.00
2018-01-13T13:31:06.629Z,46.37
2018-01-13T13:33:32.443Z,46.70
2018-01-13T13:35:58.247Z,47.00
2018-01-13T13:38:24.014Z,46.63
2018-01-13T13:40:49.791Z,45.00
2018-01-13T13:43:22.508Z,43.77
2018-01-13T13:45:48.263Z,45.83
2018-01-13T13:48:14.113Z,42.97
2018-01-13T13:50:39.940Z,42.60
2018-01-13T13:53:05.694Z,42.20
2018-01-13T13:55:31.446Z,41.90
2018-01-13T13:57:57.195Z,41.97
2018-01-13T14:00:22.971Z,42.63
2018-01-13T14:02:48.714Z,41.77
2018-01-13T14:05:14.467Z,39.23
2018-01-13T14:07:40.204Z,42.60
2018-01-13T14:10:05.960Z,42.77
2018-01-13T14:12:31.722Z,42.30
2018-01-13T14:14:58.028Z,37.90
2018-01-13T14:17:23.246Z,37.80
2018-01-13T14:19:49.003Z,35.30
2018-01-13T14:22:14.748Z,34.90
2018-01-13T14:24:40.509Z,36.23
2018-01-13T14:27:06.255Z,35.63
2018-01-13T14:29:32.051Z,34.60
2018-01-13T14:31:57.843Z,33.07
2018-01-13T14:34:23.586Z,35.97
2018-01-13T14:36:49.343Z,34.67
2018-01-13T14:39:15.143Z,33.20
2018-01-13T14:41:40.887Z,35.57
2018-01-13T14:44:06.644Z,34.53
2018-01-13T14:46:32.395Z,32.80
2018-01-13T14:48:58.155Z,33.50
2018-01-13T14:51:23.977Z,29.73
2018-01-13T14:53:49.681Z,29.60
2018-01-13T14:56:15.439Z,27.07
2018-01-13T14:58:41.170Z,28.47
2018-01-13T15:01:06.915Z,29.90
2018-01-13T15:03:32.659Z,31.87
2018-01-13T15:05:58.412Z,30.00
2018-01-13T15:08:24.154Z,28.73
2018-01-13T15:10:49.907Z,28.27
2018-01-13T15:13:15.664Z,28.73
2018-01-13T15:15:41.426Z,29.17
2018-01-13T15:18:07.180Z,28.67
2018-01-13T15:20:32.935Z,25.43
2018-01-13T15:22:58.699Z,25.73
2018-01-13T15:25:24.451Z,25.97
2018-01-13T15:27:50.205Z,25.53
2018-01-13T15:30:15.956Z,24.67
2018-01-13T15:32:41.719Z,24.80
2018-01-13T15:35:07.472Z,25.37
2018-01-13T15:37:33.241Z,24.57
2018-01-13T15:39:59.003Z,24.53
2018-01-13T15:42:24.772Z,24.77
2018-01-13T15:44:50.525Z,24.37
2018-01-13T15:47:16.287Z,22.37
2018-01-13T15:49:42.039Z,21.77
2018-01-13T15:52:07.802Z,22.17
2018-01-13T15:54:33.555Z,22.90
2018-01-13T15:56:59.321Z,22.57
2018-01-13T15:59:25.076Z,23.57
2018-01-13T16:01:50.826Z,23.93
2018-01-13T16:04:16.576Z,23.70
2018-01-13T16:06:42.332Z,23.83
2018-01-13T16:09:08.093Z,24.17
2018-01-13T16:11:33.850Z,22.13
2018-01-13T16:13:59.599Z,23.00
2018-01-13T16:16:25.352Z,21.40
2018-01-13T16:18:51.108Z,21.97
2018-01-13T16:21:16.839Z,20.13
2018-01-13T16:23:42.635Z,22.97
2018-01-13T16:26:08.437Z,19.70
2018-01-13T16:28:34.195Z,21.27
2018-01-13T16:30:59.951Z,19.33
2018-01-13T16:33:25.747Z,19.63
2018-01-13T16:35:51.480Z,20.60
2018-01-13T16:38:17.230Z,20.77
2018-01-13T16:40:42.985Z,20.73
2018-01-13T16:43:08.778Z,19.37
2018-01-13T16:45:34.514Z,17.83
2018-01-13T16:48:00.286Z,18.47
2018-01-13T16:50:26.034Z,19.03
2018-01-13T16:52:51.787Z,18.97
2018-01-13T16:55:17.517Z,20.47
2018-01-13T16:57:43.315Z,20.13
2018-01-13T17:00:09.093Z,19.63
2018-01-13T17:02:34.896Z,19.57
2018-01-13T17:05:00.663Z,19.83
2018-01-13T17:07:26.415Z,21.47
2018-01-13T17:09:52.166Z,20.03
2018-01-13T17:12:17.915Z,21.53
2018-01-13T17:14:43.679Z,20.80
2018-01-13T17:17:09.422Z,21.30
2018-01-13T17:19:35.195Z,19.50
2018-01-13T17:22:00.931Z,21.23
2018-01-13T17:24:26.675Z,17.07
2018-01-13T17:26:52.428Z,15.87
2018-01-13T17:29:18.176Z,17.67
2018-01-13T17:31:43.922Z,18.23
2018-01-13T17:34:09.684Z,21.07
2018-01-13T17:36:35.428Z,19.60
2018-01-13T17:39:01.183Z,19.80
2018-01-13T17:41:26.945Z,19.80
2018-01-13T17:43:52.680Z,18.73
2018-01-13T17:46:18.414Z,19.40
2018-01-13T17:48:44.203Z,18.30
2018-01-13T17:51:09.972Z,19.97
2018-01-13T17:53:35.736Z,19.73
2018-01-13T17:56:01.496Z,19.40
2018-01-13T17:58:27.251Z,17.20
2018-01-13T18:00:53.006Z,16.40
2018-01-13T18:03:18.758Z,18.00
2018-01-13T18:05:44.514Z,16.30
2018-01-13T18:08:10.258Z,16.70
2018-01-13T18:10:36.020Z,17.10
2018-01-13T18:13:01.769Z,17.17
2018-01-13T18:15:27.519Z,17.40
2018-01-13T18:17:53.258Z,16.63
2018-01-13T18:20:19.023Z,17.70
2018-01-13T18:22:44.786Z,18.70
2018-01-13T18:25:10.555Z,19.43
2018-01-13T18:27:36.311Z,18.57
2018-01-13T18:30:02.072Z,18.10
2018-01-13T18:32:27.834Z,16.40
2018-01-13T18:34:53.602Z,17.67
2018-01-13T18:37:19.363Z,18.43
2018-01-13T18:39:45.115Z,18.33
2018-01-13T18:42:10.875Z,17.83
2018-01-13T18:44:36.674Z,17.50
2018-01-13T18:47:02.430Z,19.23
2018-01-13T18:49:28.186Z,19.60
2018-01-13T18:51:53.947Z,18.80
2018-01-13T18:54:19.698Z,18.50
2018-01-13T18:56:45.446Z,18.37
2018-01-13T18:59:11.204Z,18.33
2018-01-13T19:01:36.982Z,18.43
2018-01-13T19:04:02.727Z,19.67
2018-01-13T19:06:28.496Z,18.70
2018-01-13T19:08:54.230Z,18.53
2018-01-13T19:11:19.975Z,21.07
2018-01-13T19:13:45.715Z,18.73
2018-01-13T19:16:11.478Z,19.40
2018-01-13T19:18:37.234Z,20.90
2018-01-13T19:21:02.990Z,18.57
2018-01-13T19:23:28.749Z,18.93
2018-01-13T19:25:54.487Z,18.47
2018-01-13T19:28:20.246Z,18.90
2018-01-13T19:30:46.008Z,18.87
2018-01-13T19:33:11.777Z,18.60
2018-01-13T19:35:37.518Z,15.97
2018-01-13T19:38:03.272Z,18.33
2018-01-13T19:40:29.022Z,18.27
2018-01-13T19:42:54.766Z,17.40
2018-01-13T19:45:20.518Z,17.57
2018-01-13T19:47:46.280Z,17.27
2018-01-13T19:50:12.034Z,17.17
2018-01-13T19:52:37.795Z,17.40
2018-01-13T19:55:03.538Z,16.53
2018-01-13T19:57:29.308Z,15.67
2018-01-13T19:59:55.042Z,18.03
2018-01-13T20:02:20.788Z,17.10
2018-01-13T20:04:46.538Z,18.23
2018-01-13T20:07:12.281Z,17.77
2018-01-13T20:09:38.035Z,17.90
2018-01-13T20:12:03.791Z,17.43
2018-01-13T20:14:29.648Z,17.07
2018-01-13T20:16:55.396Z,16.53
2018-01-13T20:19:21.161Z,16.57
2018-01-13T20:21:46.907Z,16.70
2018-01-13T20:24:12.746Z,16.77
2018-01-13T20:26:38.865Z,17.33
2018-01-13T20:29:04.678Z,17.25
2018-01-13T20:31:30.426Z,18.83
2018-01-13T20:33:56.246Z,19.10
2018-01-13T20:36:21.995Z,17.03
2018-01-13T20:38:47.759Z,16.70
2018-01-13T20:41:13.818Z,18.30
2018-01-13T20:43:39.579Z,18.98
2018-01-13T20:46:05.616Z,18.23
2018-01-13T20:48:31.376Z,15.65
2018-01-13T20:50:57.130Z,17.80
2018-01-13T20:53:22.883Z,17.33
2018-01-13T20:55:48.639Z,16.90
2018-01-13T20:58:14.395Z,17.23
2018-01-13T21:00:40.157Z,17.63
2018-01-13T21:03:05.898Z,17.33
2018-01-13T21:05:31.668Z,19.17
2018-01-13T21:07:57.415Z,18.13
2018-01-13T21:10:23.243Z,17.93
2018-01-13T21:12:48.947Z,18.10
2018-01-13T21:15:14.713Z,18.57
2018-01-13T21:17:40.455Z,19.90
2018-01-13T21:20:06.208Z,19.10
2018-01-13T21:22:31.943Z,18.07
2018-01-13T21:24:57.751Z,18.70
2018-01-13T21:27:23.459Z,17.57
2018-01-13T21:29:49.319Z,18.87
2018-01-13T21:32:15.082Z,18.43
2018-01-13T21:34:40.878Z,17.47
2018-01-13T21:37:06.614Z,16.60
2018-01-13T21:39:32.375Z,15.13
2018-01-13T21:41:58.127Z,14.63
2018-01-13T21:44:23.894Z,14.77
2018-01-13T21:46:49.647Z,13.93
2018-01-13T21:49:15.404Z,13.97
2018-01-13T21:51:41.167Z,15.00
2018-01-13T21:54:06.918Z,16.80
2018-01-13T21:56:32.676Z,17.77
2018-01-13T21:58:58.418Z,15.97
2018-01-13T22:01:24.182Z,15.20
2018-01-13T22:03:50.497Z,15.67
2018-01-13T22:06:16.275Z,14.60
2018-01-13T22:08:42.031Z,14.13
2018-01-13T22:11:07.841Z,15.40
2018-01-13T22:13:33.574Z,16.40
2018-01-13T22:15:59.318Z,18.17
2018-01-13T22:18:25.124Z,16.30
2018-01-13T22:20:50.879Z,14.87
2018-01-13T22:23:16.639Z,14.67
2018-01-13T22:25:42.395Z,14.07
2018-01-13T22:28:08.134Z,14.37
2018-01-13T22:30:33.881Z,13.40
2018-01-13T22:32:59.642Z,12.23
2018-01-13T22:35:25.388Z,13.00
2018-01-13T22:37:51.143Z,13.40
2018-01-13T22:40:16.902Z,13.20
2018-01-13T22:42:42.678Z,13.50
2018-01-13T22:45:08.431Z,13.40
2018-01-13T22:47:34.199Z,13.20
2018-01-13T22:49:59.939Z,12.27
2018-01-13T22:52:25.701Z,13.70
2018-01-13T22:54:51.454Z,13.33
2018-01-13T22:57:17.209Z,13.00
2018-01-13T22:59:42.980Z,13.30
2018-01-13T23:02:08.719Z,12.37
2018-01-13T23:04:34.460Z,13.27
2018-01-13T23:07:00.236Z,12.47
2018-01-13T23:09:25.971Z,12.83
2018-01-13T23:11:51.719Z,13.13
2018-01-13T23:14:17.478Z,13.23
2018-01-13T23:16:43.226Z,13.30
2018-01-13T23:19:08.982Z,13.20
2018-01-13T23:21:34.740Z,12.50
2018-01-13T23:24:00.495Z,13.47
2018-01-13T23:26:26.233Z,13.20
2018-01-13T23:28:51.988Z,13.30
2018-01-13T23:31:17.733Z,13.03
2018-01-13T23:33:43.487Z,13.13
2018-01-13T23:36:09.224Z,14.07
2018-01-13T23:38:34.982Z,13.20
2018-01-13T23:41:00.730Z,12.03
2018-01-13T23:43:26.491Z,13.13
2018-01-13T23:45:52.258Z,12.27
2018-01-13T23:48:18.052Z,12.93
2018-01-13T23:50:43.802Z,11.70
2018-01-13T23:53:09.538Z,13.10
2018-01-13T23:55:35.309Z,12.20
2018-01-13T23:58:01.080Z,12.40
